Time;durP1;ratioP1;P1;durP2;ratioP2;P2;SDS_P1;SDS_P2;PMS_P1;PMS_P2;Temp;Humidity;BMP_temperature;BMP_pressure;BME280_temperature;BME280_humidity;BME280_pressure;Samples;Min_cycle;Max_cycle;Signal;HPM_P1;HPM_P2
2022/05/29 00:02:11;;;;;;;3.15;1.70;;;9.20;99.90;;;;;;5030051;28;20119;-69
2022/05/29 00:04:41;;;;;;;2.55;2.35;;;9.10;99.90;;;;;;5037941;28;20147;-68
2022/05/29 00:07:13;;;;;;;;;;;9.10;99.90;;;;;;5029710;28;20121;-67
2022/05/29 00:09:42;;;;;;;2.35;1.85;;;9.10;99.90;;;;;;5032094;28;20030;-65
2022/05/29 00:12:11;;;;;;;3.50;2.60;;;9.10;99.90;;;;;;5032141;28;20136;-71
2022/05/29 00:14:39;;;;;;;2.58;1.65;;;9.10;99.90;;;;;;5025121;28;20296;-72
2022/05/29 00:17:06;;;;;;;7.10;2.70;;;9.10;99.90;;;;;;5029798;28;20049;-68
2022/05/29 00:19:33;;;;;;;3.97;3.58;;;9.10;99.90;;;;;;5029779;28;20045;-71
2022/05/29 00:22:01;;;;;;;2.03;1.50;;;9.10;99.90;;;;;;5033107;28;20117;-68
2022/05/29 00:24:28;;;;;;;3.22;1.98;;;9.10;99.90;;;;;;5031116;28;20151;-70
2022/05/29 00:26:55;;;;;;;3.53;2.60;;;9.10;99.90;;;;;;5011015;28;20049;-67
2022/05/29 00:29:22;;;;;;;2.58;1.77;;;9.10;99.90;;;;;;5033462;28;20140;-67
2022/05/29 00:31:53;;;;;;;2.38;1.95;;;9.10;99.90;;;;;;5028862;28;20060;-71
2022/05/29 00:34:20;;;;;;;2.95;2.55;;;9.10;99.90;;;;;;5032806;28;21026;-68
2022/05/29 00:36:47;;;;;;;4.03;2.00;;;9.20;99.90;;;;;;5030494;28;20138;-67
2022/05/29 00:39:16;;;;;;;4.25;2.15;;;9.10;99.90;;;;;;5032765;28;20049;-67
2022/05/29 00:41:43;;;;;;;3.05;2.00;;;9.10;99.90;;;;;;5032897;28;20068;-68
2022/05/29 00:44:26;;;;;;;2.72;2.53;;;9.10;99.90;;;;;;5032538;28;20347;-69
2022/05/29 00:47:00;;;;;;;2.55;2.35;;;9.10;99.90;;;;;;5006726;28;20147;-70
2022/05/29 00:49:34;;;;;;;2.38;2.17;;;9.20;99.90;;;;;;5032539;28;21364;-69
2022/05/29 00:52:08;;;;;;;2.00;1.80;;;9.20;99.90;;;;;;5031241;28;20059;-69
2022/05/29 00:54:45;;;;;;;2.75;2.28;;;9.20;99.90;;;;;;5030475;28;20454;-68
2022/05/29 00:57:18;;;;;;;2.30;2.10;;;9.20;99.90;;;;;;5032997;28;20056;-71
2022/05/29 00:59:46;;;;;;;4.78;2.83;;;9.20;99.90;;;;;;5032357;28;20880;-68
2022/05/29 01:02:13;;;;;;;3.80;2.78;;;9.20;99.90;;;;;;5033152;28;20060;-68
2022/05/29 01:04:44;;;;;;;4.65;3.13;;;9.30;99.90;;;;;;5026221;28;20964;-70
2022/05/29 01:07:14;;;;;;;3.08;2.75;;;9.30;99.90;;;;;;5032613;28;20162;-67
2022/05/29 01:09:44;;;;;;;4.47;3.00;;;9.30;99.90;;;;;;5031765;28;20053;-68
2022/05/29 01:12:16;;;;;;;6.40;2.47;;;9.30;99.90;;;;;;5031470;28;20054;-67
2022/05/29 01:15:05;;;;;;;3.40;2.65;;;9.30;99.90;;;;;;5030248;28;20102;-67
2022/05/29 01:17:44;;;;;;;5.40;3.80;;;9.30;99.90;;;;;;5031653;28;20135;-69
2022/05/29 01:20:16;;;;;;;3.28;2.97;;;9.40;99.90;;;;;;5028297;28;20135;-69
2022/05/29 01:23:02;;;;;;;2.70;2.50;;;9.40;99.90;;;;;;5029374;28;20155;-68
2022/05/29 01:25:48;;;;;;;4.65;3.47;;;9.40;99.90;;;;;;5030666;28;20152;-68
2022/05/29 01:28:39;;;;;;;4.88;3.13;;;9.40;99.90;;;;;;5031964;28;20715;-69
2022/05/29 01:31:11;;;;;;;4.13;3.38;;;9.40;99.90;;;;;;5029009;28;20507;-72
2022/05/29 01:33:53;;;;;;;5.55;3.38;;;9.40;99.90;;;;;;5030365;28;20491;-66
2022/05/29 01:36:42;;;;;;;3.53;3.13;;;9.40;99.90;;;;;;5028954;28;20158;-69
2022/05/29 01:39:21;;;;;;;4.35;3.80;;;9.40;99.90;;;;;;5030723;28;20041;-72
2022/05/29 01:41:57;;;;;;;4.45;3.65;;;9.40;99.90;;;;;;5032152;28;20142;-69
2022/05/29 01:45:03;;;;;;;2.97;2.72;;;9.40;99.90;;;;;;5030792;28;20147;-69
2022/05/29 01:48:01;;;;;;;3.38;3.08;;;9.40;99.90;;;;;;5030743;28;20079;-72
2022/05/29 01:50:54;;;;;;;4.72;3.85;;;9.40;99.90;;;;;;5025752;28;20223;-70
2022/05/29 01:53:28;;;;;;;4.28;3.88;;;9.40;99.90;;;;;;5031803;28;20060;-67
2022/05/29 01:56:00;;;;;;;5.20;3.92;;;9.40;99.90;;;;;;5031864;28;20087;-67
2022/05/29 01:58:37;;;;;;;5.38;3.72;;;9.40;99.90;;;;;;5030326;28;20075;-67
2022/05/29 02:01:07;;;;;;;3.70;3.40;;;9.40;99.90;;;;;;5031192;28;20057;-71
2022/05/29 02:03:38;;;;;;;;;;;9.40;99.90;;;;;;5032071;28;20149;-72
2022/05/29 02:06:26;;;;;;;3.83;3.53;;;9.40;99.90;;;;;;5032215;28;20012;-68
2022/05/29 02:09:01;;;;;;;3.97;3.58;;;9.40;99.90;;;;;;5030162;28;20836;-68
2022/05/29 02:11:31;;;;;;;8.27;3.72;;;9.40;99.90;;;;;;5028974;28;20045;-71
2022/05/29 02:14:11;;;;;;;4.43;4.03;;;9.40;99.90;;;;;;5032347;28;20063;-68
2022/05/29 02:16:46;;;;;;;8.38;3.67;;;9.40;99.90;;;;;;5029800;28;20049;-66
2022/05/29 02:19:27;;;;;;;6.30;3.95;;;9.40;99.90;;;;;;5031359;28;20078;-68
2022/05/29 02:22:06;;;;;;;4.70;3.88;;;9.40;99.90;;;;;;5031776;28;20147;-66
2022/05/29 02:24:43;;;;;;;7.80;4.85;;;9.40;99.90;;;;;;5024874;28;20099;-70
2022/05/29 02:27:26;;;;;;;4.88;4.05;;;9.40;99.90;;;;;;5027928;28;20106;-69
2022/05/29 02:29:58;;;;;;;5.53;4.30;;;9.40;99.90;;;;;;5028163;28;21469;-71
2022/05/29 02:32:30;;;;;;;4.68;4.28;;;9.40;99.90;;;;;;5029132;28;20056;-68
2022/05/29 02:35:21;;;;;;;4.57;3.60;;;9.40;99.90;;;;;;5026597;28;20721;-69
2022/05/29 02:38:07;;;;;;;4.30;3.97;;;9.40;99.90;;;;;;5031199;28;20041;-66
2022/05/29 02:40:48;;;;;;;5.03;3.95;;;9.40;99.90;;;;;;5006307;28;20123;-67
2022/05/29 02:43:30;;;;;;;3.38;3.05;;;9.40;99.90;;;;;;5030297;28;20073;-69
2022/05/29 02:46:12;;;;;;;14.13;4.75;;;9.40;99.90;;;;;;5030704;28;21027;-69
2022/05/29 02:49:08;;;;;;;4.40;3.80;;;9.40;99.90;;;;;;5009847;28;20487;-67
2022/05/29 02:51:49;;;;;;;4.40;4.00;;;9.40;99.90;;;;;;5030729;28;20053;-69
2022/05/29 02:54:26;;;;;;;8.68;4.50;;;9.40;99.90;;;;;;5026647;28;20041;-67
2022/05/29 02:56:54;;;;;;;6.95;3.63;;;9.40;99.90;;;;;;5029571;28;20053;-70
2022/05/29 02:59:24;;;;;;;5.53;3.70;;;9.40;99.90;;;;;;5030755;28;20722;-67
2022/05/29 03:01:57;;;;;;;4.40;3.70;;;9.40;99.90;;;;;;5030064;28;20411;-68
2022/05/29 03:04:43;;;;;;;5.90;3.47;;;9.40;99.90;;;;;;5030170;28;20057;-69
2022/05/29 03:07:26;;;;;;;3.80;3.40;;;9.40;99.90;;;;;;5025373;28;20052;-71
2022/05/29 03:10:20;;;;;;;5.50;4.15;;;9.40;99.90;;;;;;5029441;28;20049;-71
2022/05/29 03:13:06;;;;;;;4.07;3.63;;;9.40;99.90;;;;;;5028632;28;20146;-67
2022/05/29 03:15:35;;;;;;;9.68;4.43;;;9.50;99.90;;;;;;5030544;28;20085;-67
2022/05/29 03:18:02;;;;;;;4.05;3.63;;;9.50;99.90;;;;;;5030812;28;20055;-67
2022/05/29 03:20:50;;;;;;;4.35;3.90;;;9.50;99.90;;;;;;5027620;28;20149;-69
2022/05/29 03:23:27;;;;;;;5.05;3.38;;;9.50;99.90;;;;;;5030744;28;20079;-68
2022/05/29 03:25:59;;;;;;;4.10;3.70;;;9.50;99.90;;;;;;5029779;28;20096;-71
2022/05/29 03:28:40;;;;;;;7.20;3.97;;;9.50;99.90;;;;;;5027370;28;20037;-70
2022/05/29 03:31:12;;;;;;;4.43;3.80;;;9.50;99.90;;;;;;5028713;28;21072;-67
2022/05/29 03:33:41;;;;;;;4.45;3.42;;;9.60;99.90;;;;;;5028915;28;20072;-67
2022/05/29 03:36:11;;;;;;;4.07;3.55;;;9.60;99.90;;;;;;5028876;28;20061;-68
2022/05/29 03:38:38;;;;;;;;;;;9.60;99.90;;;;;;5026663;28;21049;-67
2022/05/29 03:41:27;;;;;;;5.93;3.50;;;9.60;99.90;;;;;;5030030;28;19937;-69
2022/05/29 03:43:54;;;;;;;5.35;4.18;;;9.60;99.90;;;;;;5030446;28;20080;-67
2022/05/29 03:46:21;;;;;;;7.03;3.95;;;9.50;99.90;;;;;;5032560;28;20063;-68
2022/05/29 03:48:48;;;;;;;4.32;3.08;;;9.60;99.90;;;;;;5031787;28;20126;-67
2022/05/29 03:51:14;;;;;;;7.60;4.10;;;9.60;99.90;;;;;;5033585;28;20402;-69
2022/05/29 03:53:42;;;;;;;5.28;3.30;;;9.60;99.90;;;;;;5032374;28;20060;-68
2022/05/29 03:56:09;;;;;;;8.15;4.53;;;9.60;99.90;;;;;;5033214;28;20327;-68
2022/05/29 03:58:36;;;;;;;4.70;3.22;;;9.70;99.90;;;;;;5028637;28;20063;-66
2022/05/29 04:01:03;;;;;;;3.42;3.13;;;9.70;99.90;;;;;;5034333;28;20057;-68
2022/05/29 04:03:30;;;;;;;6.43;2.92;;;9.80;99.90;;;;;;5032292;28;20059;-69
2022/05/29 04:05:57;;;;;;;3.35;2.72;;;9.80;99.90;;;;;;5034028;28;20069;-66
2022/05/29 04:13:55;;;;;;;2.90;2.30;;;9.90;99.90;;;;;;5029381;28;20135;-68
2022/05/29 04:16:22;;;;;;;3.47;3.17;;;9.90;99.90;;;;;;5034535;28;20049;-68
2022/05/29 04:18:49;;;;;;;4.70;2.72;;;10.00;99.90;;;;;;5031385;28;20761;-67
2022/05/29 04:21:16;;;;;;;2.70;2.08;;;10.00;99.90;;;;;;5032816;28;20055;-70
2022/05/29 04:23:43;;;;;;;3.88;2.78;;;10.00;99.90;;;;;;5033282;28;20048;-66
2022/05/29 04:26:14;;;;;;;4.68;3.67;;;10.00;99.90;;;;;;5032978;28;20076;-68
2022/05/29 04:28:42;;;;;;;3.22;2.20;;;10.10;99.90;;;;;;5030820;28;20571;-69
2022/05/29 04:31:09;;;;;;;4.47;2.10;;;10.10;99.90;;;;;;5029357;28;20075;-67
2022/05/29 04:33:37;;;;;;;3.70;2.70;;;10.10;99.90;;;;;;5029973;28;20059;-69
2022/05/29 04:36:04;;;;;;;3.80;2.58;;;10.10;99.90;;;;;;5029726;28;20384;-69
2022/05/29 04:38:31;;;;;;;3.25;2.42;;;10.20;99.90;;;;;;5029871;28;20151;-69
2022/05/29 04:41:03;;;;;;;2.72;2.22;;;10.20;99.90;;;;;;5031740;28;20049;-67
2022/05/29 04:43:30;;;;;;;7.07;2.22;;;10.20;99.90;;;;;;5032652;28;20143;-66
2022/05/29 04:45:57;;;;;;;2.20;2.00;;;10.20;99.90;;;;;;5028537;28;20072;-67
2022/05/29 04:48:25;;;;;;;4.82;2.60;;;10.20;99.90;;;;;;5031898;28;20170;-68
2022/05/29 04:50:59;;;;;;;2.58;1.70;;;10.20;99.90;;;;;;5029065;28;20045;-66
2022/05/29 04:53:28;;;;;;;2.60;1.92;;;10.20;99.90;;;;;;5031770;28;20099;-66
2022/05/29 04:55:57;;;;;;;3.30;2.05;;;10.20;99.90;;;;;;5032159;28;21261;-70
2022/05/29 04:58:26;;;;;;;2.08;1.90;;;10.20;99.90;;;;;;5032994;28;20164;-69
2022/05/29 05:00:57;;;;;;;1.90;1.80;;;10.20;99.90;;;;;;5030064;28;20055;-71
2022/05/29 05:03:25;;;;;;;2.42;1.80;;;10.30;99.90;;;;;;5030051;28;20057;-68
2022/05/29 05:05:52;;;;;;;1.95;1.55;;;10.30;99.90;;;;;;5030891;28;20056;-68
2022/05/29 05:08:19;;;;;;;2.00;1.80;;;10.20;99.90;;;;;;5032357;28;20064;-67
2022/05/29 05:10:46;;;;;;;2.55;2.35;;;10.20;99.90;;;;;;5029628;28;20363;-68
2022/05/29 05:13:13;;;;;;;3.90;1.80;;;10.20;99.90;;;;;;5033081;28;20478;-68
2022/05/29 05:15:40;;;;;;;2.53;2.33;;;10.30;99.90;;;;;;5032410;28;20045;-69
2022/05/29 05:18:07;;;;;;;1.83;1.73;;;10.20;99.90;;;;;;5028033;28;20145;-67
2022/05/29 05:20:37;;;;;;;5.00;3.03;;;10.30;99.90;;;;;;5031833;28;20228;-66
2022/05/29 05:23:04;;;;;;;3.53;2.65;;;10.30;99.90;;;;;;5033068;28;20140;-69
2022/05/29 05:25:33;;;;;;;3.80;2.40;;;10.30;99.90;;;;;;5030810;28;20076;-68
2022/05/29 05:27:59;;;;;;;3.20;1.92;;;10.30;99.90;;;;;;5030859;28;20139;-67
2022/05/29 05:30:27;;;;;;;3.45;2.55;;;10.30;99.90;;;;;;5032130;28;20063;-67
2022/05/29 05:32:54;;;;;;;3.25;1.95;;;10.20;99.90;;;;;;5025756;28;20073;-67
2022/05/29 05:35:21;;;;;;;2.00;1.90;;;10.30;99.90;;;;;;5030301;28;20060;-67
2022/05/29 05:37:48;;;;;;;4.93;2.63;;;10.40;99.90;;;;;;5033011;28;20053;-68
2022/05/29 05:40:15;;;;;;;3.42;2.25;;;10.40;99.90;;;;;;5030948;28;20157;-67
2022/05/29 05:42:42;;;;;;;3.40;1.95;;;10.40;99.90;;;;;;5029830;28;20287;-67
2022/05/29 05:45:11;;;;;;;2.85;1.80;;;10.40;99.90;;;;;;5032572;28;20534;-69
2022/05/29 05:47:38;;;;;;;2.22;2.03;;;10.40;99.90;;;;;;5031415;28;20144;-69
2022/05/29 05:50:09;;;;;;;3.03;2.03;;;10.30;99.90;;;;;;5026776;28;20140;-69
2022/05/29 05:52:37;;;;;;;3.20;1.90;;;10.40;99.90;;;;;;5030230;28;20075;-68
2022/05/29 05:55:06;;;;;;;3.20;2.50;;;10.50;99.90;;;;;;5031058;28;20053;-68
2022/05/29 05:57:33;;;;;;;2.65;2.45;;;10.50;99.90;;;;;;5031064;28;20160;-68
2022/05/29 06:00:00;;;;;;;5.35;3.10;;;10.60;99.90;;;;;;5030776;28;20135;-71
2022/05/29 06:02:27;;;;;;;2.58;2.38;;;10.60;99.90;;;;;;5027069;28;20049;-67
2022/05/29 06:04:54;;;;;;;4.30;2.78;;;10.50;99.90;;;;;;5024552;28;20154;-67
2022/05/29 06:07:21;;;;;;;2.65;2.20;;;10.50;99.90;;;;;;5031272;28;20053;-71
2022/05/29 06:09:49;;;;;;;3.58;2.83;;;10.50;99.90;;;;;;5029564;28;20586;-67
2022/05/29 06:12:19;;;;;;;3.22;2.17;;;10.40;99.90;;;;;;5031101;28;20183;-69
2022/05/29 06:14:48;;;;;;;2.47;2.10;;;10.50;99.90;;;;;;5026983;28;20053;-71
2022/05/29 06:17:15;;;;;;;2.70;2.00;;;10.50;99.90;;;;;;5030648;28;20076;-68
2022/05/29 06:19:42;;;;;;;2.05;1.95;;;10.50;99.90;;;;;;5029177;28;20055;-70
2022/05/29 06:22:09;;;;;;;2.65;1.90;;;10.60;99.90;;;;;;5027269;28;20049;-71
2022/05/29 06:24:36;;;;;;;2.20;1.92;;;10.60;99.90;;;;;;5028368;28;20110;-66
2022/05/29 06:27:03;;;;;;;2.40;2.20;;;10.50;99.90;;;;;;5031081;28;20053;-71
2022/05/29 06:29:30;;;;;;;2.47;1.77;;;10.60;99.90;;;;;;5029304;28;20366;-69
2022/05/29 06:32:03;;;;;;;1.85;1.75;;;10.60;99.90;;;;;;5030988;28;20131;-67
2022/05/29 06:34:32;;;;;;;4.38;2.70;;;10.60;99.90;;;;;;5026334;28;20157;-67
2022/05/29 06:37:02;;;;;;;2.78;2.38;;;10.70;99.90;;;;;;5026174;28;20132;-68
2022/05/29 06:39:29;;;;;;;;;;;10.70;99.90;;;;;;5030213;28;20052;-68
2022/05/29 06:41:58;;;;;;;4.30;2.08;;;10.70;99.90;;;;;;5015921;28;20130;-68
2022/05/29 06:44:25;;;;;;;2.10;2.00;;;10.80;99.90;;;;;;5030848;28;20053;-67
2022/05/29 06:46:53;;;;;;;2.50;2.30;;;10.80;99.90;;;;;;5028508;28;20232;-69
2022/05/29 06:49:21;;;;;;;2.30;2.10;;;10.80;99.90;;;;;;5030920;28;20056;-69
2022/05/29 06:51:48;;;;;;;3.55;2.10;;;10.70;99.90;;;;;;5030136;28;20620;-67
2022/05/29 06:54:14;;;;;;;2.40;2.20;;;10.80;99.90;;;;;;5025424;28;20657;-68
2022/05/29 06:56:42;;;;;;;2.63;2.42;;;10.80;99.90;;;;;;5027507;28;21131;-68
2022/05/29 06:59:09;;;;;;;2.22;2.03;;;10.90;99.90;;;;;;5028899;28;20060;-67
2022/05/29 07:07:12;;;;;;;3.20;2.35;;;11.00;99.90;;;;;;5028595;28;20219;-68
2022/05/29 07:09:40;;;;;;;3.45;2.45;;;11.00;99.90;;;;;;5024454;28;20467;-68
2022/05/29 07:12:15;;;;;;;2.30;2.10;;;11.00;99.90;;;;;;5029530;28;20041;-67
2022/05/29 07:14:50;;;;;;;2.40;2.20;;;11.00;99.90;;;;;;5028274;28;20426;-69
2022/05/29 07:17:18;;;;;;;3.60;3.08;;;11.10;99.90;;;;;;5029497;28;20158;-69
2022/05/29 07:19:46;;;;;;;2.97;2.67;;;11.20;99.90;;;;;;5029304;28;20352;-71
2022/05/29 07:22:13;;;;;;;2.28;1.88;;;11.10;99.90;;;;;;5010996;28;20191;-66
2022/05/29 07:24:41;;;;;;;2.90;2.60;;;11.10;99.90;;;;;;5023852;28;20131;-67
2022/05/29 07:27:10;;;;;;;2.53;2.28;;;11.00;99.90;;;;;;5030714;28;20182;-68
2022/05/29 07:29:37;;;;;;;2.05;1.90;;;11.10;99.90;;;;;;5030285;28;20052;-66
2022/05/29 07:32:05;;;;;;;2.65;2.33;;;11.00;99.90;;;;;;5030417;28;20120;-68
2022/05/29 07:34:32;;;;;;;3.38;2.28;;;11.00;99.90;;;;;;5028348;28;20111;-67
2022/05/29 07:37:05;;;;;;;2.40;2.20;;;11.10;99.90;;;;;;5029548;28;20057;-68
2022/05/29 07:39:41;;;;;;;2.38;2.17;;;11.10;99.90;;;;;;5028849;28;20531;-69
2022/05/29 07:44:55;;;;;;;2.33;2.13;;;11.10;99.90;;;;;;5028627;28;20060;-68
2022/05/29 07:47:27;;;;;;;4.72;2.38;;;11.10;99.90;;;;;;5029556;28;20140;-68
2022/05/29 07:49:57;;;;;;;4.10;2.20;;;11.10;99.90;;;;;;5029774;28;20059;-67
2022/05/29 07:52:25;;;;;;;3.83;2.20;;;11.00;99.90;;;;;;5030454;28;21097;-66
2022/05/29 07:54:52;;;;;;;3.67;2.10;;;10.90;99.90;;;;;;5028044;28;20053;-68
2022/05/29 07:57:20;;;;;;;3.00;2.70;;;10.90;99.90;;;;;;5028150;28;20140;-66
2022/05/29 07:59:47;;;;;;;2.13;1.90;;;11.00;99.90;;;;;;5032676;28;20187;-67
2022/05/29 08:02:14;;;;;;;2.33;2.13;;;11.00;99.90;;;;;;5028300;28;20057;-66
2022/05/29 08:04:42;;;;;;;3.33;3.03;;;11.10;99.90;;;;;;5024278;28;20045;-69
2022/05/29 08:07:11;;;;;;;2.20;2.05;;;11.10;99.90;;;;;;5028636;28;20164;-67
2022/05/29 08:09:38;;;;;;;3.13;2.25;;;11.20;99.90;;;;;;5026332;28;20068;-66
2022/05/29 08:12:06;;;;;;;2.58;2.38;;;11.30;99.90;;;;;;5030162;28;20128;-68
2022/05/29 08:14:33;;;;;;;2.22;1.98;;;11.20;99.90;;;;;;5027174;28;20053;-70
2022/05/29 08:17:00;;;;;;;2.25;1.92;;;11.30;99.90;;;;;;5028257;28;20144;-68
2022/05/29 08:19:27;;;;;;;2.47;2.25;;;11.40;99.90;;;;;;5031287;28;20056;-70
2022/05/29 08:21:54;;;;;;;2.70;2.42;;;11.40;99.90;;;;;;5031179;28;20053;-65
2022/05/29 08:33:05;;;;;;;2.03;1.85;;;11.50;99.90;;;;;;5029944;28;20617;-69
2022/05/29 08:35:33;;;;;;;2.30;1.92;;;11.50;99.90;;;;;;5032118;28;20153;-68
2022/05/29 08:38:02;;;;;;;2.42;2.22;;;11.60;99.90;;;;;;5034573;28;20737;-71
2022/05/29 08:40:30;;;;;;;3.38;2.03;;;11.70;99.90;;;;;;5028412;28;20136;-69
2022/05/29 08:42:58;;;;;;;3.03;2.00;;;11.80;99.90;;;;;;5030122;28;20068;-66
2022/05/29 08:45:29;;;;;;;2.42;2.20;;;11.80;99.90;;;;;;5027560;28;20056;-67
2022/05/29 08:47:58;;;;;;;3.08;2.88;;;11.80;99.90;;;;;;5031972;28;20081;-67
2022/05/29 08:50:44;;;;;;;2.95;1.70;;;11.90;99.90;;;;;;5034518;28;20049;-68
2022/05/29 08:53:28;;;;;;;4.28;1.92;;;11.70;99.90;;;;;;5034158;28;20490;-71
2022/05/29 08:56:13;;;;;;;1.80;1.70;;;11.80;99.90;;;;;;5035156;28;20071;-69
2022/05/29 08:59:12;;;;;;;2.78;2.38;;;11.70;99.90;;;;;;5034246;28;20092;-66
2022/05/29 09:02:30;;;;;;;2.25;2.15;;;11.50;99.90;;;;;;5031683;28;20132;-68
2022/05/29 09:05:09;;;;;;;4.07;2.35;;;11.50;99.90;;;;;;5008499;28;20053;-68
2022/05/29 09:07:39;;;;;;;2.47;2.22;;;11.60;99.90;;;;;;5035771;28;20486;-68
2022/05/29 09:10:15;;;;;;;3.92;3.13;;;11.80;99.90;;;;;;5033749;28;20068;-68
2022/05/29 09:12:52;;;;;;;2.65;2.42;;;11.80;99.90;;;;;;5017290;28;20040;-68
2022/05/29 09:15:35;;;;;;;3.33;2.65;;;11.90;99.90;;;;;;5034705;28;20119;-67
2022/05/29 09:18:11;;;;;;;4.88;2.78;;;12.00;99.90;;;;;;5033334;28;20056;-67
2022/05/29 09:20:49;;;;;;;2.92;2.13;;;12.00;99.90;;;;;;5031988;28;20056;-67
2022/05/29 09:23:23;;;;;;;3.17;2.08;;;11.90;99.90;;;;;;5033937;28;20122;-68
2022/05/29 09:25:52;;;;;;;2.50;2.30;;;12.10;99.90;;;;;;5034190;28;20144;-67
2022/05/29 09:28:25;;;;;;;2.85;2.28;;;12.20;99.90;;;;;;5034299;28;20743;-65
2022/05/29 09:31:01;;;;;;;2.05;1.85;;;12.30;99.90;;;;;;5032383;28;20178;-67
2022/05/29 09:33:29;;;;;;;1.92;1.83;;;12.30;99.90;;;;;;5030312;28;20047;-69
2022/05/29 09:36:05;;;;;;;1.60;1.50;;;12.40;99.90;;;;;;5035175;28;20225;-70
2022/05/29 09:38:41;;;;;;;1.60;1.50;;;12.20;99.90;;;;;;5032289;28;20123;-67
2022/05/29 09:41:18;;;;;;;1.35;1.25;;;12.20;99.90;;;;;;5035115;28;20048;-69
2022/05/29 09:44:04;;;;;;;2.13;1.90;;;12.40;99.90;;;;;;5034395;28;20067;-68
2022/05/29 09:46:34;;;;;;;1.25;1.15;;;12.40;99.90;;;;;;5033258;28;20139;-68
2022/05/29 09:51:55;;;;;;;1.17;1.08;;;12.60;99.90;;;;;;5034698;28;20438;-70
2022/05/29 09:54:53;;;;;;;1.10;0.95;;;12.40;99.90;;;;;;5034581;28;20076;-68
2022/05/29 09:57:26;;;;;;;2.40;1.55;;;12.30;99.90;;;;;;5025592;28;20083;-66
2022/05/29 10:00:23;;;;;;;2.90;1.60;;;12.50;99.90;;;;;;5033950;28;20156;-66
2022/05/29 10:02:51;;;;;;;0.80;0.80;;;12.60;99.90;;;;;;5032108;28;20053;-68
2022/05/29 10:05:26;;;;;;;2.92;2.22;;;12.70;99.90;;;;;;5031409;28;20053;-67
2022/05/29 10:07:58;;;;;;;1.15;1.15;;;12.50;99.90;;;;;;5033986;28;20143;-69
2022/05/29 10:10:25;;;;;;;1.63;1.52;;;12.50;99.90;;;;;;5033760;28;20049;-68
2022/05/29 10:12:58;;;;;;;3.08;1.70;;;12.60;99.90;;;;;;5032185;28;20615;-68
2022/05/29 10:15:24;;;;;;;2.38;1.25;;;12.70;99.90;;;;;;5034022;28;20076;-67
2022/05/29 10:18:08;;;;;;;1.45;1.35;;;12.70;99.90;;;;;;5034003;28;20049;-67
2022/05/29 10:21:04;;;;;;;2.47;1.38;;;12.70;99.90;;;;;;5013571;28;20049;-68
2022/05/29 10:23:34;;;;;;;1.35;1.25;;;12.70;99.90;;;;;;5033695;28;20103;-69
2022/05/29 10:26:09;;;;;;;0.95;0.93;;;12.80;99.90;;;;;;5033434;28;20514;-69
2022/05/29 10:28:38;;;;;;;1.60;1.13;;;12.70;99.90;;;;;;5032405;28;20099;-67
2022/05/29 10:31:08;;;;;;;2.45;1.35;;;12.90;99.90;;;;;;5034449;28;20166;-69
2022/05/29 10:33:35;;;;;;;3.50;1.85;;;12.90;99.90;;;;;;5032744;28;20479;-68
2022/05/29 10:36:15;;;;;;;1.75;1.58;;;12.70;99.90;;;;;;5030675;28;20139;-66
2022/05/29 10:38:43;;;;;;;1.65;1.55;;;12.80;99.90;;;;;;5031341;28;20057;-66
2022/05/29 10:41:11;;;;;;;2.10;1.90;;;12.80;99.90;;;;;;5033261;28;20168;-67
2022/05/29 10:43:44;;;;;;;1.73;1.35;;;12.70;99.90;;;;;;5033193;28;20514;-65
2022/05/29 10:46:11;;;;;;;2.22;1.45;;;12.80;99.90;;;;;;5033572;28;20087;-68
2022/05/29 10:48:50;;;;;;;1.10;1.10;;;13.00;99.90;;;;;;5031334;28;20055;-68
2022/05/29 10:51:38;;;;;;;1.38;1.27;;;12.90;99.90;;;;;;5029422;28;20749;-70
2022/05/29 10:54:23;;;;;;;1.60;1.50;;;12.90;99.90;;;;;;5032962;28;20624;-66
2022/05/29 10:56:59;;;;;;;1.85;1.75;;;13.00;99.90;;;;;;5032030;28;20146;-67
2022/05/29 10:59:34;;;;;;;1.60;1.30;;;12.90;99.90;;;;;;5033088;28;20531;-67
2022/05/29 11:05:49;;;;;;;1.50;1.40;;;13.00;99.90;;;;;;5032029;28;20057;-66
2022/05/29 11:08:37;;;;;;;2.40;1.88;;;13.20;99.90;;;;;;5028249;28;20736;-69
2022/05/29 11:11:20;;;;;;;1.40;1.30;;;13.20;99.90;;;;;;5014313;28;20068;-68
2022/05/29 11:14:00;;;;;;;1.50;1.33;;;13.30;99.90;;;;;;5032910;28;20142;-67
2022/05/29 11:16:56;;;;;;;1.48;1.33;;;13.30;99.90;;;;;;5033312;28;20552;-70
2022/05/29 11:19:46;;;;;;;1.80;1.70;;;13.20;99.90;;;;;;5030948;28;20521;-68
2022/05/29 11:22:53;;;;;;;1.60;1.50;;;13.30;99.90;;;;;;5032923;28;20526;-67
2022/05/29 11:25:46;;;;;;;1.65;1.23;;;13.20;99.90;;;;;;5031869;28;20139;-70
2022/05/29 11:28:33;;;;;;;4.85;2.75;;;13.20;99.90;;;;;;5032336;28;20148;-70
2022/05/29 11:31:28;;;;;;;1.95;1.73;;;13.40;99.90;;;;;;5031845;28;20040;-69
2022/05/29 11:34:24;;;;;;;1.55;1.42;;;13.40;99.90;;;;;;5032305;28;20838;-66
2022/05/29 11:37:29;;;;;;;4.57;1.70;;;13.20;99.90;;;;;;5030797;28;20060;-68
2022/05/29 11:40:19;;;;;;;2.13;1.70;;;13.40;99.90;;;;;;5028568;28;20068;-70
2022/05/29 11:43:17;;;;;;;1.40;1.30;;;13.40;99.90;;;;;;5030477;28;20189;-72
2022/05/29 11:51:47;;;;;;;2.15;1.77;;;13.50;99.90;;;;;;5016176;28;20073;-71
2022/05/29 11:54:25;;;;;;;1.50;1.50;;;13.60;99.90;;;;;;5032558;28;20118;-69
2022/05/29 11:56:59;;;;;;;2.33;2.13;;;13.70;99.90;;;;;;5028538;28;20158;-68
2022/05/29 11:59:50;;;;;;;2.58;1.40;;;13.80;99.90;;;;;;5032402;28;20073;-71
2022/05/29 12:02:29;;;;;;;2.75;1.10;;;13.90;99.90;;;;;;5032452;28;20084;-66
2022/05/29 12:05:15;;;;;;;4.03;1.42;;;13.80;99.90;;;;;;5033803;28;20110;-67
2022/05/29 12:07:50;;;;;;;2.15;2.00;;;13.60;99.90;;;;;;5036975;28;20086;-69
2022/05/29 12:10:21;;;;;;;1.70;1.30;;;13.60;99.90;;;;;;5036369;28;20666;-68
2022/05/29 12:13:00;;;;;;;2.38;1.55;;;13.70;99.90;;;;;;5031398;28;20049;-68
2022/05/29 12:15:30;;;;;;;2.00;1.80;;;13.60;99.90;;;;;;5036610;28;20460;-71
2022/05/29 12:18:20;;;;;;;1.90;1.70;;;13.20;99.90;;;;;;5035499;28;20059;-69
2022/05/29 12:20:52;;;;;;;2.10;2.00;;;13.30;99.90;;;;;;5033688;28;20048;-68
2022/05/29 12:23:25;;;;;;;2.47;2.25;;;13.30;99.90;;;;;;5035868;28;20048;-68
2022/05/29 12:26:00;;;;;;;1.83;1.73;;;13.30;99.90;;;;;;5036155;28;20057;-72
2022/05/29 12:28:52;;;;;;;2.63;1.80;;;13.30;99.90;;;;;;5033014;28;20056;-70
2022/05/29 12:31:21;;;;;;;2.85;1.30;;;13.50;99.90;;;;;;5035396;28;20068;-66
2022/05/29 12:33:49;;;;;;;2.40;2.20;;;13.50;99.90;;;;;;5035319;28;20993;-67
2022/05/29 12:36:50;;;;;;;2.60;2.20;;;13.60;99.90;;;;;;5036845;28;20053;-70
2022/05/29 12:39:27;;;;;;;1.60;1.50;;;13.40;99.90;;;;;;5034777;28;20076;-69
2022/05/29 12:42:13;;;;;;;1.85;1.10;;;13.60;99.90;;;;;;5020861;28;20125;-71
2022/05/29 12:45:12;;;;;;;1.60;1.50;;;13.70;99.90;;;;;;5031034;28;20138;-67
2022/05/29 12:47:51;;;;;;;1.30;1.20;;;13.80;99.90;;;;;;5035942;28;20212;-69
2022/05/29 12:50:46;;;;;;;1.40;1.30;;;13.70;99.90;;;;;;5034706;28;20707;-67
2022/05/29 12:53:16;;;;;;;2.33;2.13;;;13.90;99.90;;;;;;5035211;28;20160;-72
2022/05/29 12:55:55;;;;;;;1.73;1.63;;;13.90;99.90;;;;;;5036423;28;20229;-69
2022/05/29 12:58:52;;;;;;;1.70;1.60;;;13.90;99.90;;;;;;5034477;28;20144;-69
2022/05/29 13:01:29;;;;;;;1.60;1.50;;;13.80;99.90;;;;;;5034307;28;20059;-66
2022/05/29 13:04:21;;;;;;;1.20;1.10;;;13.70;99.90;;;;;;5034948;28;20045;-69
2022/05/29 13:06:53;;;;;;;2.45;2.10;;;13.90;99.90;;;;;;5033498;28;20505;-70
2022/05/29 13:09:42;;;;;;;1.60;1.50;;;13.80;99.90;;;;;;5035635;28;20049;-70
2022/05/29 13:12:19;;;;;;;2.13;1.55;;;13.60;99.90;;;;;;5035279;28;20044;-71
2022/05/29 13:14:56;;;;;;;1.55;1.45;;;13.90;99.90;;;;;;5028791;28;20057;-67
2022/05/29 13:17:33;;;;;;;1.80;1.65;;;14.00;99.90;;;;;;5035336;28;20130;-70
2022/05/29 13:20:11;;;;;;;4.07;1.67;;;14.10;99.90;;;;;;5034262;28;20195;-72
2022/05/29 13:23:01;;;;;;;1.58;1.48;;;14.10;99.90;;;;;;5033877;28;20065;-72
2022/05/29 13:25:57;;;;;;;1.23;1.13;;;14.00;99.90;;;;;;5035164;28;20089;-70
2022/05/29 13:28:43;;;;;;;2.13;1.92;;;14.20;99.90;;;;;;5035075;28;20879;-66
2022/05/29 13:31:13;;;;;;;2.92;1.63;;;14.10;99.90;;;;;;5030827;28;20406;-69
2022/05/29 13:33:47;;;;;;;2.72;2.15;;;14.10;99.90;;;;;;5034189;28;20113;-68
2022/05/29 13:36:43;;;;;;;7.03;2.13;;;14.00;99.90;;;;;;5035276;28;20049;-71
2022/05/29 13:39:30;;;;;;;1.90;1.75;;;13.80;99.90;;;;;;5033197;28;21377;-69
2022/05/29 13:41:57;;;;;;;2.17;1.30;;;13.80;99.90;;;;;;5035631;28;20053;-67
2022/05/29 13:44:28;;;;;;;1.17;1.10;;;14.10;99.90;;;;;;5034619;28;20180;-68
2022/05/29 13:47:26;;;;;;;1.55;1.45;;;14.30;99.90;;;;;;5029645;28;20053;-72
2022/05/29 13:50:02;;;;;;;1.17;1.17;;;14.60;99.90;;;;;;5033171;28;20056;-69
2022/05/29 13:52:44;;;;;;;2.58;1.67;;;14.50;99.90;;;;;;5034807;28;20161;-69
2022/05/29 13:55:18;;;;;;;1.52;1.42;;;14.70;99.90;;;;;;5032648;28;20098;-71
2022/05/29 14:03:59;;;;;;;1.75;1.65;;;15.00;99.90;;;;;;5030274;28;20070;-71
2022/05/29 14:07:24;;;;;;;1.27;1.17;;;15.40;99.90;;;;;;5032506;28;20451;-70
2022/05/29 14:10:03;;;;;;;1.50;1.20;;;15.80;99.90;;;;;;5034198;28;20134;-70
2022/05/29 14:12:36;;;;;;;2.10;1.73;;;15.90;99.90;;;;;;5032613;28;20044;-68